Terminal Aerodrome Forecast
Issued by NWS

Home | Current Version | Previous Version | Text Only | Print | Product List | Glossary On
Versions: 1 2 3 4 5 6 7 8 9 10 11 12
018
FTPA31 PHFO 210534
TAFHKO
TAF
PHKO 210534Z 2106/2206 17007KT P6SM VCSH SCT025 BKN040
     FM210700 11007KT P6SM FEW025 BKN050
     FM212000 22011KT P6SM FEW025 SCT060
     FM220500 17007KT P6SM VCSH SCT025 BKN040=

USA.gov is the U.S. government's official web portal to all federal, state and local government web resources and services.